Time;durP1;ratioP1;P1;durP2;ratioP2;P2;SDS_P1;SDS_P2;PMS_P1;PMS_P2;Temp;Humidity;BMP_temperature;BMP_pressure;BME280_temperature;BME280_humidity;BME280_pressure;Samples;Min_cycle;Max_cycle;Signal;HPM_P1;HPM_P2
2022/09/19 00:01:28;;;;;;;0.10;0.10;;;;;;;;;;5069321;28;20432;-71
2022/09/19 00:03:56;;;;;;;0.00;0.00;;;;;;;;;;5069322;28;20431;-71
2022/09/19 00:06:27;;;;;;;0.10;0.10;;;;;;;;;;5069629;28;20913;-72
2022/09/19 00:08:58;;;;;;;0.10;0.10;;;;;;;;;;5068470;28;20435;-71
2022/09/19 00:11:28;;;;;;;0.10;0.10;;;;;;;;;;5069696;28;20427;-71
2022/09/19 00:13:57;;;;;;;0.20;0.20;;;;;;;;;;5062241;28;20427;-71
2022/09/19 00:16:33;;;;;;;0.10;0.10;;;;;;;;;;5069104;28;20446;-71
2022/09/19 00:19:01;;;;;;;0.10;0.10;;;;;;;;;;5069353;28;20442;-71
2022/09/19 00:21:30;;;;;;;0.10;0.10;;;;;;;;;;5069449;28;21035;-71
2022/09/19 00:26:47;;;;;;;0.20;0.20;;;;;;;;;;5069614;28;20465;-71
2022/09/19 00:29:15;;;;;;;0.20;0.20;;;;;;;;;;5069266;28;20913;-71
2022/09/19 00:31:46;;;;;;;0.10;0.10;;;;;;;;;;5069522;28;20442;-71
2022/09/19 00:34:18;;;;;;;0.20;0.20;;;;;;;;;;5069440;28;20423;-71
2022/09/19 00:36:46;;;;;;;0.20;0.20;;;;;;;;;;5069408;28;20434;-71
2022/09/19 00:39:17;;;;;;;0.00;0.00;;;;;;;;;;5069191;28;20459;-71
2022/09/19 00:41:47;;;;;;;0.20;0.20;;;;;;;;;;5069463;28;20461;-72
2022/09/19 00:44:22;;;;;;;0.20;0.20;;;;;;;;;;5070473;28;20431;-71
2022/09/19 00:47:05;;;;;;;0.10;0.10;;;;;;;;;;5071520;28;21074;-72
2022/09/19 00:49:34;;;;;;;0.10;0.10;;;;;;;;;;5072743;28;20454;-71
2022/09/19 00:52:03;;;;;;;0.20;0.20;;;;;;;;;;5072808;28;20890;-71
2022/09/19 00:54:35;;;;;;;0.10;0.10;;;;;;;;;;5072565;28;20916;-71
2022/09/19 00:57:03;;;;;;;0.10;0.10;;;;;;;;;;5071432;28;20477;-71
2022/09/19 00:59:34;;;;;;;1.60;0.20;;;;;;;;;;5071623;28;20427;-71
2022/09/19 01:02:04;;;;;;;0.10;0.10;;;;;;;;;;5071788;28;20436;-71
2022/09/19 01:04:35;;;;;;;0.10;0.10;;;;;;;;;;5072278;28;20434;-71
2022/09/19 01:07:03;;;;;;;0.20;0.10;;;;;;;;;;5071424;28;20428;-72
2022/09/19 01:09:36;;;;;;;0.08;0.08;;;;;;;;;;5072752;28;20427;-72
2022/09/19 01:12:15;;;;;;;0.10;0.10;;;;;;;;;;5072629;28;20427;-71
2022/09/19 01:15:00;;;;;;;0.10;0.10;;;;;;;;;;5071756;28;20435;-71
2022/09/19 01:17:42;;;;;;;0.10;0.10;;;;;;;;;;5071754;28;20431;-71
2022/09/19 01:20:21;;;;;;;0.20;0.15;;;;;;;;;;5071210;28;20424;-71
2022/09/19 01:22:51;;;;;;;0.10;0.10;;;;;;;;;;5072405;28;20477;-72
2022/09/19 01:25:18;;;;;;;0.20;0.20;;;;;;;;;;5072159;28;20435;-71
2022/09/19 01:28:06;;;;;;;0.20;0.20;;;;;;;;;;5072342;28;20826;-71
2022/09/19 01:30:35;;;;;;;0.20;0.10;;;;;;;;;;5071980;28;20439;-71
2022/09/19 01:33:17;;;;;;;0.20;0.20;;;;;;;;;;5071552;28;20424;-70
2022/09/19 01:35:47;;;;;;;0.20;0.20;;;;;;;;;;5072221;28;20423;-71
2022/09/19 01:38:17;;;;;;;0.20;0.20;;;;;;;;;;5072102;28;20438;-72
2022/09/19 01:40:44;;;;;;;0.10;0.10;;;;;;;;;;5071523;28;20431;-71
2022/09/19 01:43:16;;;;;;;0.10;0.10;;;;;;;;;;5071438;28;21296;-71
2022/09/19 01:45:44;;;;;;;0.10;0.10;;;;;;;;;;5072123;28;20419;-71
2022/09/19 01:48:19;;;;;;;0.13;0.13;;;;;;;;;;5071876;28;20457;-70
2022/09/19 01:50:52;;;;;;;0.10;0.10;;;;;;;;;;5072013;28;20428;-71
2022/09/19 01:53:37;;;;;;;0.20;0.20;;;;;;;;;;5071231;28;20480;-71
2022/09/19 01:56:22;;;;;;;1.30;0.60;;;;;;;;;;5069579;28;20528;-70
2022/09/19 01:59:01;;;;;;;0.20;0.20;;;;;;;;;;5071656;28;20438;-71
2022/09/19 02:01:37;;;;;;;0.13;0.13;;;;;;;;;;5071388;28;20431;-71
2022/09/19 02:04:19;;;;;;;0.10;0.10;;;;;;;;;;5071361;28;20431;-71
2022/09/19 02:06:56;;;;;;;0.13;0.13;;;;;;;;;;5070213;28;20974;-71
2022/09/19 02:09:27;;;;;;;0.10;0.10;;;;;;;;;;5071484;28;20431;-71
2022/09/19 02:11:59;;;;;;;1.60;0.20;;;;;;;;;;5071321;28;20423;-70
2022/09/19 02:14:27;;;;;;;1.90;0.10;;;;;;;;;;5071001;28;20426;-71
2022/09/19 02:17:09;;;;;;;0.15;0.15;;;;;;;;;;5071124;28;20427;-70
2022/09/19 02:19:56;;;;;;;2.30;0.30;;;;;;;;;;5071261;28;20952;-71
2022/09/19 02:22:31;;;;;;;0.10;0.10;;;;;;;;;;5070789;28;20439;-70
2022/09/19 02:25:05;;;;;;;0.10;0.10;;;;;;;;;;5070859;28;20434;-71
2022/09/19 02:27:49;;;;;;;0.60;0.30;;;;;;;;;;5071055;28;20505;-70
2022/09/19 02:30:20;;;;;;;0.17;0.17;;;;;;;;;;5069685;28;20434;-71
2022/09/19 02:32:48;;;;;;;0.10;0.10;;;;;;;;;;5070794;28;20427;-71
2022/09/19 02:35:16;;;;;;;0.20;0.20;;;;;;;;;;5070340;28;20446;-70
2022/09/19 02:37:48;;;;;;;1.70;0.40;;;;;;;;;;5069712;28;20423;-71
2022/09/19 02:40:27;;;;;;;1.00;0.13;;;;;;;;;;5071037;28;20435;-71
2022/09/19 02:43:02;;;;;;;1.20;0.20;;;;;;;;;;5070442;28;20454;-71
2022/09/19 02:45:41;;;;;;;0.10;0.10;;;;;;;;;;5070173;28;20435;-71
2022/09/19 02:48:14;;;;;;;0.13;0.13;;;;;;;;;;5070259;28;20866;-71
2022/09/19 02:50:59;;;;;;;0.40;0.20;;;;;;;;;;5070304;28;20424;-71
2022/09/19 02:53:29;;;;;;;0.20;0.20;;;;;;;;;;5069445;28;20428;-71
2022/09/19 02:55:59;;;;;;;0.10;0.10;;;;;;;;;;5070349;28;20439;-71
2022/09/19 02:58:28;;;;;;;0.20;0.20;;;;;;;;;;5070843;28;20427;-71
2022/09/19 03:00:57;;;;;;;0.10;0.10;;;;;;;;;;5070303;28;20477;-70
2022/09/19 03:06:24;;;;;;;0.90;0.20;;;;;;;;;;5070252;28;20432;-71
2022/09/19 03:08:53;;;;;;;0.30;0.30;;;;;;;;;;5070256;28;20500;-71
2022/09/19 03:11:22;;;;;;;0.53;0.23;;;;;;;;;;5070364;28;20477;-70
2022/09/19 03:13:49;;;;;;;0.17;0.17;;;;;;;;;;5069672;28;20924;-70
2022/09/19 03:16:18;;;;;;;0.28;0.28;;;;;;;;;;5068924;28;20419;-70
2022/09/19 03:18:46;;;;;;;0.60;0.25;;;;;;;;;;5070148;28;20439;-71
2022/09/19 03:21:19;;;;;;;0.22;0.22;;;;;;;;;;5070450;28;20438;-70
2022/09/19 03:23:47;;;;;;;1.00;0.40;;;;;;;;;;5068531;28;20431;-70
2022/09/19 03:26:18;;;;;;;0.20;0.20;;;;;;;;;;5070046;28;20426;-71
2022/09/19 03:28:45;;;;;;;0.10;0.10;;;;;;;;;;5070220;28;20427;-70
2022/09/19 03:31:13;;;;;;;0.30;0.30;;;;;;;;;;5069867;28;20430;-70
2022/09/19 03:33:43;;;;;;;0.30;0.30;;;;;;;;;;5069832;28;20427;-70
2022/09/19 03:36:11;;;;;;;1.20;0.30;;;;;;;;;;5069817;28;20909;-70
2022/09/19 03:38:45;;;;;;;0.20;0.20;;;;;;;;;;5069894;28;20434;-70
2022/09/19 03:41:13;;;;;;;0.20;0.20;;;;;;;;;;5069363;28;20438;-70
2022/09/19 03:43:43;;;;;;;0.20;0.20;;;;;;;;;;5068963;28;20438;-70
2022/09/19 03:46:11;;;;;;;0.20;0.20;;;;;;;;;;5068586;28;20427;-70
2022/09/19 03:48:39;;;;;;;0.50;0.30;;;;;;;;;;5069488;28;21194;-70
2022/09/19 03:51:07;;;;;;;1.90;0.20;;;;;;;;;;5069767;28;20441;-70
2022/09/19 03:53:34;;;;;;;0.80;0.40;;;;;;;;;;5069424;28;20427;-70
2022/09/19 03:56:01;;;;;;;0.20;0.20;;;;;;;;;;5069569;28;20428;-71
2022/09/19 03:58:30;;;;;;;0.28;0.28;;;;;;;;;;5069595;28;20431;-71
2022/09/19 04:00:57;;;;;;;0.30;0.30;;;;;;;;;;5069571;28;20960;-70
2022/09/19 04:03:25;;;;;;;0.40;0.40;;;;;;;;;;5069161;28;20814;-71
2022/09/19 04:06:00;;;;;;;2.10;0.40;;;;;;;;;;5069561;28;20432;-70
2022/09/19 04:08:29;;;;;;;0.20;0.20;;;;;;;;;;5068491;28;20477;-71
2022/09/19 04:10:56;;;;;;;1.00;0.20;;;;;;;;;;5069636;28;20428;-70
2022/09/19 04:13:27;;;;;;;0.17;0.17;;;;;;;;;;5069312;28;20431;-71
2022/09/19 04:15:54;;;;;;;0.22;0.22;;;;;;;;;;5069874;28;20431;-71
2022/09/19 04:18:22;;;;;;;0.40;0.40;;;;;;;;;;5070216;28;20450;-70
2022/09/19 04:20:51;;;;;;;0.20;0.20;;;;;;;;;;5073399;28;20433;-71
2022/09/19 04:23:18;;;;;;;0.20;0.20;;;;;;;;;;5073244;28;20481;-71
2022/09/19 04:25:49;;;;;;;0.38;0.38;;;;;;;;;;5073430;28;20509;-71
2022/09/19 04:28:20;;;;;;;0.25;0.25;;;;;;;;;;5073609;28;20427;-71
2022/09/19 04:30:47;;;;;;;0.30;0.20;;;;;;;;;;5073468;28;20427;-70
2022/09/19 04:33:15;;;;;;;0.25;0.25;;;;;;;;;;5073096;28;20461;-71
2022/09/19 04:35:44;;;;;;;0.20;0.20;;;;;;;;;;5073299;28;20493;-71
2022/09/19 04:38:13;;;;;;;0.25;0.25;;;;;;;;;;5073380;28;20438;-71
2022/09/19 04:40:44;;;;;;;1.67;0.47;;;;;;;;;;5073464;28;20806;-71
2022/09/19 04:43:13;;;;;;;0.47;0.35;;;;;;;;;;5071102;28;20427;-70
2022/09/19 04:45:42;;;;;;;0.30;0.30;;;;;;;;;;5073183;28;20432;-70
2022/09/19 04:48:12;;;;;;;0.40;0.40;;;;;;;;;;5073112;28;20943;-71
2022/09/19 04:50:39;;;;;;;0.20;0.20;;;;;;;;;;5073123;28;20435;-72
2022/09/19 04:53:07;;;;;;;0.20;0.20;;;;;;;;;;5072557;28;20427;-73
2022/09/19 04:55:36;;;;;;;0.50;0.50;;;;;;;;;;5071853;28;21167;-74
2022/09/19 04:58:04;;;;;;;0.38;0.38;;;;;;;;;;5072821;28;20438;-74
2022/09/19 05:00:38;;;;;;;0.30;0.30;;;;;;;;;;5072451;28;20431;-73
2022/09/19 05:03:15;;;;;;;0.43;0.40;;;;;;;;;;5079772;28;20427;-73
2022/09/19 05:05:50;;;;;;;0.20;0.20;;;;;;;;;;5072832;28;20553;-73
2022/09/19 05:08:25;;;;;;;0.20;0.20;;;;;;;;;;5072972;28;20489;-72
2022/09/19 05:10:56;;;;;;;0.20;0.20;;;;;;;;;;5072407;28;20424;-72
2022/09/19 05:13:28;;;;;;;1.23;0.40;;;;;;;;;;5071906;28;20438;-73
2022/09/19 05:16:00;;;;;;;0.30;0.30;;;;;;;;;;5072684;28;20428;-73
2022/09/19 05:18:27;;;;;;;0.30;0.30;;;;;;;;;;5071324;28;20550;-73
2022/09/19 05:20:55;;;;;;;0.20;0.20;;;;;;;;;;5071301;28;20431;-73
2022/09/19 05:23:23;;;;;;;0.10;0.10;;;;;;;;;;5070889;28;20809;-72
2022/09/19 05:25:56;;;;;;;0.30;0.30;;;;;;;;;;5072434;28;20422;-73
2022/09/19 05:28:27;;;;;;;0.30;0.30;;;;;;;;;;5072386;28;20442;-72
2022/09/19 05:30:55;;;;;;;0.17;0.17;;;;;;;;;;5071102;28;20487;-72
2022/09/19 05:33:26;;;;;;;0.30;0.30;;;;;;;;;;5071788;28;20454;-73
2022/09/19 05:35:55;;;;;;;0.20;0.20;;;;;;;;;;5072330;28;20436;-73
2022/09/19 05:38:25;;;;;;;0.20;0.20;;;;;;;;;;5072471;28;20497;-73
2022/09/19 05:40:55;;;;;;;1.60;0.40;;;;;;;;;;5072071;28;20945;-73
2022/09/19 05:43:22;;;;;;;2.63;0.40;;;;;;;;;;5071606;28;20824;-72
2022/09/19 05:45:51;;;;;;;0.60;0.20;;;;;;;;;;5072177;28;20489;-73
2022/09/19 05:48:18;;;;;;;0.20;0.20;;;;;;;;;;5071966;28;20435;-72
2022/09/19 05:50:45;;;;;;;0.20;0.20;;;;;;;;;;5071915;28;20439;-73
2022/09/19 05:55:59;;;;;;;0.70;0.40;;;;;;;;;;5051897;28;20429;-72
2022/09/19 05:58:27;;;;;;;0.30;0.30;;;;;;;;;;5051981;28;20425;-72
2022/09/19 06:00:55;;;;;;;0.30;0.30;;;;;;;;;;5051706;28;20433;-72
2022/09/19 06:03:22;;;;;;;0.32;0.32;;;;;;;;;;5051226;28;20978;-73
2022/09/19 06:05:51;;;;;;;0.20;0.20;;;;;;;;;;5050530;28;20433;-72
2022/09/19 06:08:20;;;;;;;0.60;0.50;;;;;;;;;;5050314;28;20433;-72
2022/09/19 06:10:48;;;;;;;0.30;0.30;;;;;;;;;;5051190;28;20433;-72
2022/09/19 06:13:20;;;;;;;2.33;0.70;;;;;;;;;;5049818;28;20460;-73
2022/09/19 06:15:48;;;;;;;1.65;0.38;;;;;;;;;;5051489;28;20448;-72
2022/09/19 06:18:22;;;;;;;0.20;0.20;;;;;;;;;;5051208;28;20429;-72
2022/09/19 06:20:49;;;;;;;1.20;0.52;;;;;;;;;;5051775;28;20437;-72
2022/09/19 06:23:16;;;;;;;0.30;0.30;;;;;;;;;;5050707;28;20821;-72
2022/09/19 06:25:45;;;;;;;2.00;0.40;;;;;;;;;;5051342;28;20425;-79
2022/09/19 06:28:13;;;;;;;0.57;0.50;;;;;;;;;;5049903;28;21024;-74
2022/09/19 06:30:40;;;;;;;0.30;0.30;;;;;;;;;;5050919;28;20425;-74
2022/09/19 06:33:07;;;;;;;2.00;0.30;;;9.70;99.90;;;;;;5050788;28;20425;-72
2022/09/19 06:35:34;;;;;;;1.40;0.40;;;11.30;99.90;;;;;;5051266;28;20425;-73
2022/09/19 06:38:04;;;;;;;1.00;0.30;;;11.30;99.90;;;;;;5051149;28;20429;-72
2022/09/19 06:40:31;;;;;;;2.58;0.70;;;11.30;99.90;;;;;;5051015;28;20435;-71
2022/09/19 06:43:01;;;;;;;0.50;0.40;;;11.30;99.90;;;;;;5050403;28;20440;-71
2022/09/19 06:45:40;;;;;;;0.60;0.50;;;11.30;99.90;;;;;;5049878;28;20467;-73
2022/09/19 06:48:10;;;;;;;2.60;0.30;;;11.10;99.90;;;;;;5050898;28;20463;-71
2022/09/19 06:50:37;;;;;;;0.38;0.30;;;11.10;99.90;;;;;;5050626;28;20475;-72
2022/09/19 06:53:04;;;;;;;0.30;0.30;;;11.10;99.90;;;;;;5050135;28;20425;-71
2022/09/19 06:55:31;;;;;;;0.40;0.40;;;11.10;99.90;;;;;;5050918;28;20436;-71
2022/09/19 06:58:00;;;;;;;0.35;0.30;;;11.10;99.90;;;;;;5050702;28;20429;-72
2022/09/19 07:00:28;;;;;;;0.60;0.60;;;11.00;99.90;;;;;;5050584;28;20433;-73
2022/09/19 07:03:01;;;;;;;0.20;0.20;;;10.90;99.90;;;;;;5050429;28;20491;-74
2022/09/19 07:05:30;;;;;;;0.40;0.40;;;10.90;99.90;;;;;;5050078;28;20887;-71
2022/09/19 07:07:57;;;;;;;0.47;0.47;;;10.90;99.90;;;;;;5050714;28;20429;-73
2022/09/19 07:10:26;;;;;;;0.20;0.20;;;10.90;99.90;;;;;;5050094;28;21267;-71
2022/09/19 07:12:52;;;;;;;0.20;0.20;;;11.00;99.90;;;;;;5049941;28;20523;-72
2022/09/19 07:15:23;;;;;;;0.40;0.40;;;11.10;99.90;;;;;;5049183;28;20439;-72
2022/09/19 07:17:54;;;;;;;0.40;0.40;;;11.20;99.90;;;;;;5050364;28;20425;-71
2022/09/19 07:20:21;;;;;;;1.55;0.38;;;11.30;99.90;;;;;;5048973;28;20440;-72
2022/09/19 07:23:02;;;;;;;0.40;0.40;;;11.40;99.90;;;;;;5048478;28;22024;-71
2022/09/19 07:25:29;;;;;;;0.40;0.40;;;;;;;;;;5050141;28;20499;-72
2022/09/19 07:28:00;;;;;;;0.60;0.40;;;;;;;;;;5050110;28;20429;-71
2022/09/19 07:30:34;;;;;;;0.30;0.30;;;;;;;;;;5050071;28;20433;-71
2022/09/19 07:33:02;;;;;;;0.38;0.30;;;;;;;;;;5049890;28;20923;-71
2022/09/19 07:35:30;;;;;;;0.50;0.50;;;;;;;;;;5050308;28;20425;-71
2022/09/19 07:38:02;;;;;;;0.43;0.43;;;;;;;;;;5050296;28;20436;-71
2022/09/19 07:40:29;;;;;;;1.90;0.40;;;;;;;;;;5060282;28;20566;-72
2022/09/19 07:43:01;;;;;;;0.50;0.40;;;;;;;;;;5069348;28;20442;-71
2022/09/19 07:45:28;;;;;;;0.70;0.30;;;;;;;;;;5070515;28;20435;-71
2022/09/19 07:48:01;;;;;;;0.40;0.40;;;;;;;;;;5070218;28;20431;-72
2022/09/19 07:50:28;;;;;;;0.30;0.30;;;;;;;;;;5069986;28;20434;-71
2022/09/19 07:52:59;;;;;;;1.83;0.43;;;;;;;;;;5069187;28;20428;-72
2022/09/19 07:55:27;;;;;;;0.40;0.30;;;;;;;;;;5069797;28;20423;-72
2022/09/19 07:57:55;;;;;;;0.70;0.50;;;;;;;;;;5069716;28;20427;-72
2022/09/19 08:00:24;;;;;;;0.40;0.40;;;;;;;;;;5069833;28;20962;-72
2022/09/19 08:02:58;;;;;;;2.60;0.40;;;;;;;;;;5069867;28;20890;-72
2022/09/19 08:05:27;;;;;;;0.60;0.30;;;;;;;;;;5069281;28;20435;-72
2022/09/19 08:07:56;;;;;;;1.00;0.60;;;;;;;;;;5069811;28;20431;-72
2022/09/19 08:10:23;;;;;;;0.70;0.50;;;;;;;;;;5069570;28;20442;-72
2022/09/19 08:12:50;;;;;;;0.30;0.30;;;;;;;;;;5069671;28;20427;-71
2022/09/19 08:15:18;;;;;;;0.80;0.50;;;;;;;;;;5069462;28;20423;-71
2022/09/19 08:17:59;;;;;;;0.70;0.43;;;;;;;;;;5069536;28;20427;-72
2022/09/19 08:20:26;;;;;;;0.70;0.50;;;;;;;;;;5069419;28;20432;-71
2022/09/19 08:22:57;;;;;;;0.22;0.22;;;;;;;;;;5069454;28;20514;-71
2022/09/19 08:25:25;;;;;;;0.55;0.55;;;;;;;;;;5069769;28;20431;-72
2022/09/19 08:27:52;;;;;;;0.43;0.43;;;;;;;;;;5069571;28;20435;-72
2022/09/19 08:30:20;;;;;;;1.70;0.50;;;;;;;;;;5068818;28;20439;-71
2022/09/19 08:32:49;;;;;;;2.70;0.40;;;;;;;;;;5068505;28;20427;-72
2022/09/19 08:35:17;;;;;;;0.60;0.60;;;;;;;;;;5068983;28;20423;-72
2022/09/19 08:37:45;;;;;;;0.30;0.30;;;;;;;;;;5069562;28;20427;-71
2022/09/19 08:40:18;;;;;;;0.30;0.30;;;;;;;;;;5069397;28;20461;-71
2022/09/19 08:42:56;;;;;;;0.60;0.60;;;;;;;;;;5069494;28;20488;-71
2022/09/19 08:45:42;;;;;;;0.40;0.40;;;;;;;;;;5069602;28;20481;-71
2022/09/19 08:48:13;;;;;;;0.30;0.30;;;;;;;;;;5068277;28;20434;-71
2022/09/19 08:50:45;;;;;;;0.50;0.50;;;;;;;;;;5069732;28;20455;-71
2022/09/19 08:53:15;;;;;;;0.50;0.50;;;;;;;;;;5069294;28;20431;-72
2022/09/19 08:55:43;;;;;;;0.40;0.40;;;;;;;;;;5069651;28;20481;-72
2022/09/19 08:58:16;;;;;;;1.40;0.60;;;;;;;;;;5069501;28;20506;-72
2022/09/19 09:00:45;;;;;;;0.25;0.25;;;;;;;;;;5069816;28;20427;-72
2022/09/19 09:03:17;;;;;;;0.60;0.60;;;;;;;;;;5069092;28;20439;-73
2022/09/19 09:05:59;;;;;;;1.83;0.40;;;;;;;;;;5072107;28;20979;-73
2022/09/19 09:08:30;;;;;;;0.50;0.50;;;;;;;;;;5072722;28;20434;-72
2022/09/19 09:11:05;;;;;;;0.30;0.30;;;;;;;;;;5071912;28;20905;-72
2022/09/19 09:13:44;;;;;;;0.30;0.30;;;;;;;;;;5072355;28;20490;-72
2022/09/19 09:16:44;;;;;;;0.43;0.43;;;;;;;;;;5073022;28;20893;-72
2022/09/19 09:19:30;;;;;;;0.70;0.40;;;;;;;;;;5072680;28;20953;-72
2022/09/19 09:22:16;;;;;;;0.35;0.35;;;;;;;;;;5072665;28;20455;-72
2022/09/19 09:24:45;;;;;;;0.60;0.50;;;;;;;;;;5072173;28;20423;-72
2022/09/19 09:27:20;;;;;;;0.43;0.43;;;;;;;;;;5072417;28;20427;-72
2022/09/19 09:30:12;;;;;;;1.10;0.70;;;;;;;;;;5072719;28;20427;-72
2022/09/19 09:32:43;;;;;;;0.40;0.40;;;;;;;;;;5072709;28;20423;-71
2022/09/19 09:35:48;;;;;;;0.50;0.45;;;;;;;;;;5072178;28;20503;-72
2022/09/19 09:38:30;;;;;;;0.30;0.30;;;;;;;;;;5010119;28;20971;-71
2022/09/19 09:44:19;;;;;;;0.30;0.30;;;;;;;;;;5009605;28;20839;-71
2022/09/19 09:47:05;;;;;;;0.60;0.40;;;;;;;;;;4970561;28;20961;-72
2022/09/19 09:49:35;;;;;;;0.75;0.60;;;;;;;;;;4970804;28;20432;-72
2022/09/19 09:52:22;;;;;;;0.30;0.30;;;;;;;;;;4970550;28;20592;-72
2022/09/19 09:58:10;;;;;;;0.30;0.30;;;11.60;99.90;;;;;;4949497;28;20452;-72
2022/09/19 10:03:36;;;;;;;0.30;0.30;;;;;;;;;;4970004;28;20479;-72
2022/09/19 10:06:04;;;;;;;0.30;0.30;;;;;;;;;;4970512;28;20450;-71
2022/09/19 10:08:43;;;;;;;0.25;0.25;;;17.40;99.90;;;;;;4970298;28;20431;-72
2022/09/19 10:11:41;;;;;;;0.30;0.30;;;18.70;99.90;;;;;;4970666;28;21212;-72
2022/09/19 10:14:30;;;;;;;0.40;0.35;;;19.20;99.90;;;;;;4961096;28;20430;-72
2022/09/19 10:17:01;;;;;;;0.30;0.30;;;19.50;99.90;;;;;;4988909;28;20465;-71
2022/09/19 10:19:41;;;;;;;0.30;0.30;;;19.50;99.90;;;;;;4989806;28;21008;-71
2022/09/19 10:22:14;;;;;;;0.40;0.40;;;19.40;99.90;;;;;;5020026;28;20488;-71
2022/09/19 10:24:55;;;;;;;0.20;0.20;;;19.50;99.90;;;;;;5069874;28;20481;-71
2022/09/19 10:27:38;;;;;;;0.60;0.50;;;19.60;99.90;;;;;;5071373;28;20434;-71
2022/09/19 10:30:21;;;;;;;0.40;0.40;;;19.60;99.90;;;;;;5069804;28;20433;-71
2022/09/19 10:32:47;;;;;;;0.45;0.30;;;18.90;99.90;;;;;;5071194;28;20424;-71
2022/09/19 10:35:30;;;;;;;1.40;0.60;;;18.40;99.90;;;;;;5070803;28;20431;-71
2022/09/19 10:38:14;;;;;;;1.42;0.35;;;18.50;99.90;;;;;;5071345;28;20781;-70
2022/09/19 10:40:55;;;;;;;0.43;0.43;;;19.00;99.90;;;;;;5071340;28;20434;-71
2022/09/19 10:43:40;;;;;;;0.50;0.27;;;19.80;99.90;;;;;;5073717;28;20427;-72
2022/09/19 10:46:35;;;;;;;0.50;0.30;;;20.60;99.90;;;;;;5070750;28;20432;-72
2022/09/19 10:49:23;;;;;;;0.30;0.30;;;20.70;99.90;;;;;;5070147;28;20509;-71
2022/09/19 10:51:51;;;;;;;0.60;0.32;;;20.30;99.90;;;;;;5071142;28;20427;-72
2022/09/19 10:54:43;;;;;;;0.20;0.20;;;19.70;99.90;;;;;;5070526;28;20526;-70
2022/09/19 10:57:44;;;;;;;0.60;0.60;;;19.40;99.90;;;;;;5071185;28;20438;-71
2022/09/19 11:00:24;;;;;;;0.45;0.45;;;19.70;99.90;;;;;;5071087;28;20903;-71
2022/09/19 11:03:25;;;;;;;0.38;0.38;;;20.40;99.90;;;;;;5070951;28;21096;-72
2022/09/19 11:06:14;;;;;;;2.20;0.47;;;20.60;99.90;;;;;;5067101;28;20430;-72
2022/09/19 11:08:50;;;;;;;1.30;0.40;;;21.20;99.90;;;;;;5069575;28;20427;-70
2022/09/19 11:11:45;;;;;;;0.20;0.20;;;21.40;99.90;;;;;;5070361;28;20518;-71
2022/09/19 11:14:35;;;;;;;0.60;0.40;;;21.70;99.90;;;;;;5070058;28;20428;-71
2022/09/19 11:17:40;;;;;;;0.60;0.40;;;22.00;99.90;;;;;;5070262;28;20427;-69
2022/09/19 11:20:45;;;;;;;0.30;0.30;;;22.50;99.90;;;;;;5069212;28;20438;-69
2022/09/19 11:23:56;;;;;;;0.30;0.30;;;22.90;99.90;;;;;;5069763;28;21013;-71
2022/09/19 11:26:37;;;;;;;0.40;0.40;;;23.10;99.90;;;;;;5070423;28;20908;-71
2022/09/19 11:29:36;;;;;;;0.20;0.20;;;23.60;99.90;;;;;;5069558;28;20961;-71
2022/09/19 11:32:34;;;;;;;0.98;0.45;;;24.30;99.90;;;;;;5050724;28;20446;-71
2022/09/19 11:35:29;;;;;;;0.30;0.30;;;24.80;99.90;;;;;;5069208;28;20427;-70
2022/09/19 11:38:04;;;;;;;0.40;0.40;;;25.10;99.90;;;;;;5070020;28;20459;-71
2022/09/19 11:41:03;;;;;;;0.55;0.40;;;25.00;99.90;;;;;;5069142;28;20420;-71
2022/09/19 11:44:00;;;;;;;0.82;0.50;;;25.00;99.90;;;;;;5069364;28;20782;-69
2022/09/19 11:46:41;;;;;;;0.30;0.30;;;25.20;99.90;;;;;;5069828;28;21033;-70
2022/09/19 11:49:31;;;;;;;0.60;0.40;;;24.80;99.90;;;;;;5070105;28;20424;-71
2022/09/19 11:52:06;;;;;;;0.60;0.30;;;24.60;99.90;;;;;;5069885;28;20423;-71
2022/09/19 11:55:27;;;;;;;0.90;0.30;;;24.30;99.90;;;;;;5069567;28;20427;-69
2022/09/19 11:57:54;;;;;;;0.40;0.40;;;24.00;99.90;;;;;;4997310;28;20430;-71
2022/09/19 12:00:25;;;;;;;0.30;0.30;;;23.50;99.90;;;;;;5068601;28;20439;-71
2022/09/19 12:03:10;;;;;;;0.43;0.40;;;22.60;99.90;;;;;;5069745;28;20431;-70
2022/09/19 12:06:25;;;;;;;1.13;0.30;;;21.80;99.90;;;;;;5068272;28;20419;-71
2022/09/19 12:09:19;;;;;;;0.30;0.30;;;21.40;99.90;;;;;;5070008;28;20427;-71
2022/09/19 12:12:11;;;;;;;0.47;0.47;;;21.70;99.90;;;;;;5069592;28;20515;-71
2022/09/19 12:14:41;;;;;;;1.20;0.40;;;21.40;99.90;;;;;;5069288;28;20485;-70
2022/09/19 12:17:23;;;;;;;0.40;0.40;;;20.80;99.90;;;;;;5069719;28;20427;-71
2022/09/19 12:19:57;;;;;;;0.25;0.25;;;20.20;99.90;;;;;;5070076;28;20601;-70
2022/09/19 12:22:31;;;;;;;0.30;0.30;;;20.10;99.90;;;;;;5069089;28;20442;-70
2022/09/19 12:25:20;;;;;;;1.10;0.30;;;20.50;99.90;;;;;;5069505;28;20462;-70
2022/09/19 12:27:57;;;;;;;0.20;0.20;;;21.00;99.90;;;;;;5068733;28;20423;-70
2022/09/19 12:30:30;;;;;;;0.35;0.35;;;21.50;99.90;;;;;;5069786;28;20489;-70
2022/09/19 12:33:06;;;;;;;0.52;0.47;;;21.50;99.90;;;;;;5069925;28;20896;-70
2022/09/19 12:35:38;;;;;;;1.13;0.38;;;21.60;99.90;;;;;;5070052;28;20446;-70
2022/09/19 12:38:33;;;;;;;0.20;0.13;;;21.90;99.90;;;;;;5069672;28;20427;-71
2022/09/19 12:41:22;;;;;;;0.20;0.20;;;21.80;99.90;;;;;;5072934;28;21004;-70
2022/09/19 12:43:58;;;;;;;0.20;0.20;;;22.10;99.90;;;;;;5052833;28;20436;-70
2022/09/19 12:46:56;;;;;;;0.20;0.20;;;22.60;99.90;;;;;;5053646;28;20436;-70
2022/09/19 12:49:40;;;;;;;0.40;0.28;;;22.90;99.90;;;;;;5042831;28;20433;-71
2022/09/19 12:52:18;;;;;;;0.47;0.47;;;23.20;99.90;;;;;;5052039;28;20433;-71
2022/09/19 12:55:03;;;;;;;0.52;0.22;;;23.60;99.90;;;;;;5052977;28;20439;-71
2022/09/19 12:57:47;;;;;;;0.35;0.35;;;23.70;99.90;;;;;;5051634;28;20425;-71
2022/09/19 13:00:14;;;;;;;0.13;0.13;;;23.60;99.90;;;;;;5053699;28;20425;-71
2022/09/19 13:03:00;;;;;;;0.30;0.30;;;23.70;99.90;;;;;;5053475;28;20462;-72
2022/09/19 13:05:36;;;;;;;0.28;0.28;;;23.90;99.90;;;;;;5053169;28;20523;-71
2022/09/19 13:08:24;;;;;;;0.20;0.20;;;23.70;99.90;;;;;;5052978;28;20433;-71
2022/09/19 13:10:59;;;;;;;0.50;0.20;;;23.50;99.90;;;;;;5053215;28;20436;-71
2022/09/19 13:13:39;;;;;;;0.20;0.20;;;23.50;99.90;;;;;;5052474;28;20914;-71
2022/09/19 13:16:10;;;;;;;0.20;0.20;;;23.90;99.90;;;;;;5052419;28;20433;-72
2022/09/19 13:24:57;;;;;;;0.20;0.20;;;22.60;99.90;;;;;;5051814;28;20528;-71
2022/09/19 13:27:25;;;;;;;0.23;0.23;;;22.90;99.90;;;;;;4971251;28;20444;-72
2022/09/19 13:29:54;;;;;;;0.30;0.30;;;22.70;99.90;;;;;;4971510;28;20798;-71
2022/09/19 13:32:53;;;;;;;0.30;0.30;;;22.90;99.90;;;;;;4977385;28;20464;-72
2022/09/19 13:35:22;;;;;;;0.20;0.20;;;23.10;99.90;;;;;;4970981;28;20479;-71
2022/09/19 13:37:57;;;;;;;0.20;0.20;;;23.80;99.90;;;;;;4971266;28;20543;-72
2022/09/19 13:40:39;;;;;;;0.30;0.30;;;24.50;99.90;;;;;;4971413;28;20431;-72
2022/09/19 13:43:17;;;;;;;0.20;0.20;;;25.50;99.90;;;;;;4970793;28;21467;-71
2022/09/19 13:45:59;;;;;;;0.50;0.28;;;25.70;99.90;;;;;;4971163;28;20487;-71
2022/09/19 13:48:48;;;;;;;0.20;0.20;;;25.50;99.90;;;;;;4971111;28;20439;-72
2022/09/19 13:51:37;;;;;;;0.30;0.30;;;25.30;99.90;;;;;;4969033;28;20440;-72
2022/09/19 13:54:39;;;;;;;0.13;0.13;;;24.90;99.90;;;;;;4970246;28;20874;-72
2022/09/19 13:57:29;;;;;;;0.40;0.30;;;24.10;99.90;;;;;;4958664;28;20438;-72
2022/09/19 14:00:08;;;;;;;0.35;0.20;;;23.80;99.90;;;;;;4970420;28;20443;-72
2022/09/19 14:02:39;;;;;;;0.20;0.20;;;23.90;99.90;;;;;;4970512;28;20431;-71
2022/09/19 14:05:19;;;;;;;1.10;0.50;;;23.80;99.90;;;;;;5038094;28;20436;-71
2022/09/19 14:07:58;;;;;;;0.20;0.20;;;23.00;99.90;;;;;;5051952;28;20441;-71
2022/09/19 14:10:53;;;;;;;0.70;0.40;;;21.50;99.90;;;;;;5051738;28;20428;-71
2022/09/19 14:13:29;;;;;;;0.28;0.28;;;20.10;99.90;;;;;;5051424;28;20777;-70
2022/09/19 14:16:07;;;;;;;0.10;0.10;;;19.20;99.90;;;;;;5051572;28;20425;-70
2022/09/19 14:18:37;;;;;;;0.30;0.30;;;18.50;99.90;;;;;;5051346;28;20459;-69
2022/09/19 14:21:05;;;;;;;1.10;0.20;;;17.90;99.90;;;;;;5051418;28;20432;-69
2022/09/19 14:23:33;;;;;;;0.30;0.30;;;17.80;99.90;;;;;;5050593;28;20502;-70
2022/09/19 14:26:11;;;;;;;1.50;0.30;;;18.10;99.90;;;;;;5051401;28;20900;-70
2022/09/19 14:29:26;;;;;;;0.22;0.22;;;18.20;99.90;;;;;;5050454;28;20429;-71
2022/09/19 14:32:27;;;;;;;0.68;0.40;;;18.60;99.90;;;;;;5052285;28;20441;-70
2022/09/19 14:35:15;;;;;;;2.75;0.35;;;18.60;99.90;;;;;;5049632;28;20991;-70
2022/09/19 14:37:50;;;;;;;1.00;0.30;;;18.00;99.90;;;;;;5051271;28;20452;-70
2022/09/19 14:40:38;;;;;;;0.37;0.37;;;17.60;99.90;;;;;;5067369;28;20432;-71
2022/09/19 14:43:27;;;;;;;1.70;0.50;;;16.60;99.90;;;;;;5070381;28;20431;-71
2022/09/19 14:46:20;;;;;;;0.40;0.40;;;16.00;99.90;;;;;;5070815;28;20442;-71
2022/09/19 14:49:18;;;;;;;0.20;0.20;;;17.00;99.90;;;;;;5070791;28;20616;-72
2022/09/19 14:52:19;;;;;;;0.30;0.30;;;18.70;99.90;;;;;;5070965;28;20427;-71
2022/09/19 14:54:56;;;;;;;0.40;0.30;;;20.10;99.90;;;;;;5069984;28;20434;-69
2022/09/19 14:57:23;;;;;;;0.30;0.30;;;20.60;99.90;;;;;;5070023;28;20497;-69
2022/09/19 14:59:52;;;;;;;0.80;0.30;;;;;;;;;;5070495;28;20426;-71
2022/09/19 15:02:32;;;;;;;0.45;0.45;;;20.90;99.90;;;;;;5070156;28;20428;-70
2022/09/19 15:05:01;;;;;;;0.28;0.28;;;22.30;99.90;;;;;;5069877;28;20431;-70